sensor_id;sensor_type;location;lat;lon;timestamp;P1;durP1;ratioP1;P2;durP2;ratioP2
45540;SDS011;31265;49.680;8.608;2023-08-06T00:00:29;3.67;;;1.25;;
45540;SDS011;31265;49.680;8.608;2023-08-06T00:02:57;1.95;;;1.17;;
45540;SDS011;31265;49.680;8.608;2023-08-06T00:05:28;2.15;;;1.10;;
45540;SDS011;31265;49.680;8.608;2023-08-06T00:07:59;1.95;;;1.30;;
45540;SDS011;31265;49.680;8.608;2023-08-06T00:10:29;4.93;;;1.48;;
45540;SDS011;31265;49.680;8.608;2023-08-06T00:13:01;4.53;;;2.30;;
45540;SDS011;31265;49.680;8.608;2023-08-06T00:15:34;2.92;;;1.63;;
45540;SDS011;31265;49.680;8.608;2023-08-06T00:18:05;2.00;;;1.13;;
45540;SDS011;31265;49.680;8.608;2023-08-06T00:20:38;2.80;;;1.48;;
45540;SDS011;31265;49.680;8.608;2023-08-06T00:23:10;2.20;;;1.20;;
45540;SDS011;31265;49.680;8.608;2023-08-06T00:25:42;2.42;;;1.30;;
45540;SDS011;31265;49.680;8.608;2023-08-06T00:28:13;4.97;;;1.05;;
45540;SDS011;31265;49.680;8.608;2023-08-06T00:30:45;4.35;;;0.90;;
45540;SDS011;31265;49.680;8.608;2023-08-06T00:33:17;2.67;;;1.20;;
45540;SDS011;31265;49.680;8.608;2023-08-06T00:35:49;2.33;;;0.88;;
45540;SDS011;31265;49.680;8.608;2023-08-06T00:38:21;2.55;;;1.17;;
45540;SDS011;31265;49.680;8.608;2023-08-06T00:40:53;1.98;;;1.15;;
45540;SDS011;31265;49.680;8.608;2023-08-06T00:43:26;1.83;;;1.00;;
45540;SDS011;31265;49.680;8.608;2023-08-06T00:45:59;1.85;;;0.98;;
45540;SDS011;31265;49.680;8.608;2023-08-06T00:48:32;2.42;;;1.10;;
45540;SDS011;31265;49.680;8.608;2023-08-06T00:51:03;2.92;;;1.58;;
45540;SDS011;31265;49.680;8.608;2023-08-06T00:53:34;3.17;;;1.40;;
45540;SDS011;31265;49.680;8.608;2023-08-06T00:56:06;9.52;;;1.58;;
45540;SDS011;31265;49.680;8.608;2023-08-06T00:58:41;2.20;;;1.23;;
45540;SDS011;31265;49.680;8.608;2023-08-06T01:01:14;3.28;;;1.30;;
45540;SDS011;31265;49.680;8.608;2023-08-06T01:03:45;2.03;;;0.90;;
45540;SDS011;31265;49.680;8.608;2023-08-06T01:06:30;2.33;;;1.00;;
45540;SDS011;31265;49.680;8.608;2023-08-06T01:09:16;3.90;;;1.27;;
45540;SDS011;31265;49.680;8.608;2023-08-06T01:12:06;2.88;;;1.30;;
45540;SDS011;31265;49.680;8.608;2023-08-06T01:14:51;2.00;;;1.00;;
45540;SDS011;31265;49.680;8.608;2023-08-06T01:17:28;3.47;;;1.35;;
45540;SDS011;31265;49.680;8.608;2023-08-06T01:19:59;2.05;;;1.15;;
45540;SDS011;31265;49.680;8.608;2023-08-06T01:22:29;2.45;;;1.10;;
45540;SDS011;31265;49.680;8.608;2023-08-06T01:24:57;2.20;;;1.33;;
45540;SDS011;31265;49.680;8.608;2023-08-06T01:27:27;1.88;;;0.88;;
45540;SDS011;31265;49.680;8.608;2023-08-06T01:30:03;2.80;;;1.10;;
45540;SDS011;31265;49.680;8.608;2023-08-06T01:32:39;3.17;;;1.40;;
45540;SDS011;31265;49.680;8.608;2023-08-06T01:35:12;2.30;;;0.88;;
45540;SDS011;31265;49.680;8.608;2023-08-06T01:37:45;2.30;;;0.90;;
45540;SDS011;31265;49.680;8.608;2023-08-06T01:40:14;2.33;;;1.15;;
45540;SDS011;31265;49.680;8.608;2023-08-06T01:42:42;4.32;;;1.13;;
45540;SDS011;31265;49.680;8.608;2023-08-06T01:45:11;1.73;;;1.00;;
45540;SDS011;31265;49.680;8.608;2023-08-06T01:47:39;2.70;;;1.17;;
45540;SDS011;31265;49.680;8.608;2023-08-06T01:50:10;3.10;;;1.50;;
45540;SDS011;31265;49.680;8.608;2023-08-06T01:52:39;2.72;;;1.27;;
45540;SDS011;31265;49.680;8.608;2023-08-06T01:55:09;3.20;;;0.85;;
45540;SDS011;31265;49.680;8.608;2023-08-06T01:57:37;2.63;;;0.80;;
45540;SDS011;31265;49.680;8.608;2023-08-06T02:00:06;2.25;;;0.80;;
45540;SDS011;31265;49.680;8.608;2023-08-06T02:02:38;2.20;;;0.75;;
45540;SDS011;31265;49.680;8.608;2023-08-06T02:05:09;2.78;;;1.08;;
45540;SDS011;31265;49.680;8.608;2023-08-06T02:07:39;2.63;;;1.17;;
45540;SDS011;31265;49.680;8.608;2023-08-06T02:10:09;1.55;;;0.70;;
45540;SDS011;31265;49.680;8.608;2023-08-06T02:12:38;9.10;;;1.63;;
45540;SDS011;31265;49.680;8.608;2023-08-06T02:15:07;1.70;;;0.60;;
45540;SDS011;31265;49.680;8.608;2023-08-06T02:17:38;1.75;;;0.70;;
45540;SDS011;31265;49.680;8.608;2023-08-06T02:20:06;1.10;;;0.57;;
45540;SDS011;31265;49.680;8.608;2023-08-06T02:22:36;1.95;;;1.08;;
45540;SDS011;31265;49.680;8.608;2023-08-06T02:25:04;2.35;;;0.70;;
45540;SDS011;31265;49.680;8.608;2023-08-06T02:27:36;2.53;;;0.80;;
45540;SDS011;31265;49.680;8.608;2023-08-06T02:30:06;1.98;;;0.93;;
45540;SDS011;31265;49.680;8.608;2023-08-06T02:32:35;1.35;;;0.80;;
45540;SDS011;31265;49.680;8.608;2023-08-06T02:35:04;3.30;;;1.00;;
45540;SDS011;31265;49.680;8.608;2023-08-06T02:37:33;1.73;;;0.77;;
45540;SDS011;31265;49.680;8.608;2023-08-06T02:40:02;3.05;;;1.08;;
45540;SDS011;31265;49.680;8.608;2023-08-06T02:42:31;3.53;;;0.93;;
45540;SDS011;31265;49.680;8.608;2023-08-06T02:45:01;4.30;;;0.93;;
45540;SDS011;31265;49.680;8.608;2023-08-06T02:47:30;1.73;;;0.77;;
45540;SDS011;31265;49.680;8.608;2023-08-06T02:49:59;1.83;;;0.60;;
45540;SDS011;31265;49.680;8.608;2023-08-06T02:52:29;2.20;;;1.00;;
45540;SDS011;31265;49.680;8.608;2023-08-06T02:55:00;1.65;;;0.80;;
45540;SDS011;31265;49.680;8.608;2023-08-06T02:57:31;2.17;;;0.73;;
45540;SDS011;31265;49.680;8.608;2023-08-06T03:00:02;3.65;;;1.10;;
45540;SDS011;31265;49.680;8.608;2023-08-06T03:02:31;3.45;;;0.90;;
45540;SDS011;31265;49.680;8.608;2023-08-06T03:05:18;2.97;;;1.30;;
45540;SDS011;31265;49.680;8.608;2023-08-06T03:10:21;4.05;;;1.27;;
45540;SDS011;31265;49.680;8.608;2023-08-06T03:12:53;2.83;;;0.70;;
45540;SDS011;31265;49.680;8.608;2023-08-06T03:15:24;2.25;;;1.17;;
45540;SDS011;31265;49.680;8.608;2023-08-06T03:17:55;1.80;;;0.90;;
45540;SDS011;31265;49.680;8.608;2023-08-06T03:20:24;2.53;;;1.02;;
45540;SDS011;31265;49.680;8.608;2023-08-06T03:22:53;2.15;;;0.93;;
45540;SDS011;31265;49.680;8.608;2023-08-06T03:25:24;3.90;;;1.20;;
45540;SDS011;31265;49.680;8.608;2023-08-06T03:27:53;2.28;;;1.38;;
45540;SDS011;31265;49.680;8.608;2023-08-06T03:30:23;7.07;;;1.00;;
45540;SDS011;31265;49.680;8.608;2023-08-06T03:32:53;2.63;;;1.00;;
45540;SDS011;31265;49.680;8.608;2023-08-06T03:35:22;3.20;;;0.80;;
45540;SDS011;31265;49.680;8.608;2023-08-06T03:37:50;2.17;;;0.77;;
45540;SDS011;31265;49.680;8.608;2023-08-06T03:40:19;4.50;;;1.13;;
45540;SDS011;31265;49.680;8.608;2023-08-06T03:42:47;1.90;;;0.80;;
45540;SDS011;31265;49.680;8.608;2023-08-06T03:45:16;3.15;;;0.70;;
45540;SDS011;31265;49.680;8.608;2023-08-06T03:47:45;2.28;;;1.05;;
45540;SDS011;31265;49.680;8.608;2023-08-06T03:50:15;2.13;;;0.70;;
45540;SDS011;31265;49.680;8.608;2023-08-06T03:52:44;2.00;;;0.57;;
45540;SDS011;31265;49.680;8.608;2023-08-06T03:55:12;3.80;;;0.73;;
45540;SDS011;31265;49.680;8.608;2023-08-06T03:57:43;2.35;;;0.90;;
45540;SDS011;31265;49.680;8.608;2023-08-06T04:00:11;1.70;;;0.77;;
45540;SDS011;31265;49.680;8.608;2023-08-06T04:02:50;2.47;;;0.82;;
45540;SDS011;31265;49.680;8.608;2023-08-06T04:05:20;1.73;;;0.60;;
45540;SDS011;31265;49.680;8.608;2023-08-06T04:07:49;1.40;;;0.68;;
45540;SDS011;31265;49.680;8.608;2023-08-06T04:10:19;2.00;;;0.80;;
45540;SDS011;31265;49.680;8.608;2023-08-06T04:12:48;1.33;;;0.50;;
45540;SDS011;31265;49.680;8.608;2023-08-06T04:15:16;2.45;;;0.85;;
45540;SDS011;31265;49.680;8.608;2023-08-06T04:17:45;0.95;;;0.45;;
45540;SDS011;31265;49.680;8.608;2023-08-06T04:20:15;3.38;;;1.13;;
45540;SDS011;31265;49.680;8.608;2023-08-06T04:22:44;1.50;;;0.88;;
45540;SDS011;31265;49.680;8.608;2023-08-06T04:25:12;3.28;;;1.33;;
45540;SDS011;31265;49.680;8.608;2023-08-06T04:27:41;2.13;;;0.70;;
45540;SDS011;31265;49.680;8.608;2023-08-06T04:30:10;1.15;;;0.43;;
45540;SDS011;31265;49.680;8.608;2023-08-06T04:32:40;5.28;;;0.73;;
45540;SDS011;31265;49.680;8.608;2023-08-06T04:35:10;1.92;;;0.55;;
45540;SDS011;31265;49.680;8.608;2023-08-06T04:37:42;1.67;;;0.70;;
45540;SDS011;31265;49.680;8.608;2023-08-06T04:40:11;1.77;;;0.85;;
45540;SDS011;31265;49.680;8.608;2023-08-06T04:42:41;2.63;;;0.93;;
45540;SDS011;31265;49.680;8.608;2023-08-06T04:45:10;2.95;;;0.82;;
45540;SDS011;31265;49.680;8.608;2023-08-06T04:47:39;1.27;;;0.60;;
45540;SDS011;31265;49.680;8.608;2023-08-06T04:50:08;2.72;;;0.60;;
45540;SDS011;31265;49.680;8.608;2023-08-06T04:52:37;4.78;;;0.65;;
45540;SDS011;31265;49.680;8.608;2023-08-06T04:55:07;2.53;;;0.70;;
45540;SDS011;31265;49.680;8.608;2023-08-06T04:57:36;5.85;;;1.02;;
45540;SDS011;31265;49.680;8.608;2023-08-06T05:00:05;1.95;;;0.70;;
45540;SDS011;31265;49.680;8.608;2023-08-06T05:02:35;1.65;;;0.77;;
45540;SDS011;31265;49.680;8.608;2023-08-06T05:05:05;2.70;;;0.63;;
45540;SDS011;31265;49.680;8.608;2023-08-06T05:07:34;1.15;;;0.65;;
45540;SDS011;31265;49.680;8.608;2023-08-06T05:10:03;3.22;;;0.82;;
45540;SDS011;31265;49.680;8.608;2023-08-06T05:12:33;4.38;;;0.82;;
45540;SDS011;31265;49.680;8.608;2023-08-06T05:15:01;2.83;;;1.10;;
45540;SDS011;31265;49.680;8.608;2023-08-06T05:17:30;1.08;;;0.47;;
45540;SDS011;31265;49.680;8.608;2023-08-06T05:19:59;3.47;;;0.73;;
45540;SDS011;31265;49.680;8.608;2023-08-06T05:22:29;7.55;;;1.02;;
45540;SDS011;31265;49.680;8.608;2023-08-06T05:24:58;2.70;;;0.80;;
45540;SDS011;31265;49.680;8.608;2023-08-06T05:27:26;3.17;;;0.45;;
45540;SDS011;31265;49.680;8.608;2023-08-06T05:29:56;1.88;;;0.70;;
45540;SDS011;31265;49.680;8.608;2023-08-06T05:34:57;2.50;;;0.80;;
45540;SDS011;31265;49.680;8.608;2023-08-06T05:37:25;0.38;;;0.22;;
45540;SDS011;31265;49.680;8.608;2023-08-06T05:39:55;2.05;;;0.50;;
45540;SDS011;31265;49.680;8.608;2023-08-06T05:42:23;1.98;;;0.57;;
45540;SDS011;31265;49.680;8.608;2023-08-06T05:44:51;1.30;;;0.52;;
45540;SDS011;31265;49.680;8.608;2023-08-06T05:47:21;2.25;;;0.43;;
45540;SDS011;31265;49.680;8.608;2023-08-06T05:49:50;1.10;;;0.30;;
45540;SDS011;31265;49.680;8.608;2023-08-06T05:52:18;3.17;;;1.33;;
45540;SDS011;31265;49.680;8.608;2023-08-06T05:54:46;1.20;;;0.50;;
45540;SDS011;31265;49.680;8.608;2023-08-06T05:57:15;3.25;;;0.57;;
45540;SDS011;31265;49.680;8.608;2023-08-06T05:59:46;1.30;;;0.40;;
45540;SDS011;31265;49.680;8.608;2023-08-06T06:02:14;2.10;;;0.35;;
45540;SDS011;31265;49.680;8.608;2023-08-06T06:04:44;1.88;;;0.20;;
45540;SDS011;31265;49.680;8.608;2023-08-06T06:07:15;0.82;;;0.38;;
45540;SDS011;31265;49.680;8.608;2023-08-06T06:09:44;0.55;;;0.30;;
45540;SDS011;31265;49.680;8.608;2023-08-06T06:12:12;0.50;;;0.10;;
45540;SDS011;31265;49.680;8.608;2023-08-06T06:14:41;1.05;;;0.35;;
45540;SDS011;31265;49.680;8.608;2023-08-06T06:17:12;0.38;;;0.10;;
45540;SDS011;31265;49.680;8.608;2023-08-06T06:19:41;0.47;;;0.28;;
45540;SDS011;31265;49.680;8.608;2023-08-06T06:22:11;2.70;;;0.35;;
45540;SDS011;31265;49.680;8.608;2023-08-06T06:24:39;1.33;;;0.30;;
45540;SDS011;31265;49.680;8.608;2023-08-06T06:27:08;7.37;;;0.70;;
45540;SDS011;31265;49.680;8.608;2023-08-06T06:29:37;1.83;;;0.60;;
45540;SDS011;31265;49.680;8.608;2023-08-06T06:32:05;2.30;;;0.47;;
45540;SDS011;31265;49.680;8.608;2023-08-06T06:34:34;0.85;;;0.32;;
45540;SDS011;31265;49.680;8.608;2023-08-06T06:37:03;0.83;;;0.40;;
45540;SDS011;31265;49.680;8.608;2023-08-06T06:39:34;1.27;;;0.40;;
45540;SDS011;31265;49.680;8.608;2023-08-06T06:42:02;2.45;;;0.52;;
45540;SDS011;31265;49.680;8.608;2023-08-06T06:44:37;0.35;;;0.25;;
45540;SDS011;31265;49.680;8.608;2023-08-06T06:47:06;1.10;;;0.33;;
45540;SDS011;31265;49.680;8.608;2023-08-06T06:49:34;1.27;;;0.40;;
45540;SDS011;31265;49.680;8.608;2023-08-06T06:52:03;2.15;;;0.40;;
45540;SDS011;31265;49.680;8.608;2023-08-06T06:57:02;0.43;;;0.20;;
45540;SDS011;31265;49.680;8.608;2023-08-06T06:59:31;0.47;;;0.30;;
45540;SDS011;31265;49.680;8.608;2023-08-06T07:01:59;0.73;;;0.28;;
45540;SDS011;31265;49.680;8.608;2023-08-06T07:04:28;2.47;;;0.40;;
45540;SDS011;31265;49.680;8.608;2023-08-06T07:06:56;1.33;;;0.38;;
45540;SDS011;31265;49.680;8.608;2023-08-06T07:09:24;1.13;;;0.20;;
45540;SDS011;31265;49.680;8.608;2023-08-06T07:11:54;0.75;;;0.20;;
45540;SDS011;31265;49.680;8.608;2023-08-06T07:14:24;1.50;;;0.28;;
45540;SDS011;31265;49.680;8.608;2023-08-06T07:16:53;1.17;;;0.20;;
45540;SDS011;31265;49.680;8.608;2023-08-06T07:19:23;1.95;;;0.65;;
45540;SDS011;31265;49.680;8.608;2023-08-06T07:21:51;1.65;;;0.95;;
45540;SDS011;31265;49.680;8.608;2023-08-06T07:29:21;1.95;;;0.90;;
45540;SDS011;31265;49.680;8.608;2023-08-06T07:34:18;1.80;;;0.30;;
45540;SDS011;31265;49.680;8.608;2023-08-06T07:36:46;0.77;;;0.28;;
45540;SDS011;31265;49.680;8.608;2023-08-06T07:39:16;1.20;;;0.50;;
45540;SDS011;31265;49.680;8.608;2023-08-06T07:44:13;0.60;;;0.20;;
45540;SDS011;31265;49.680;8.608;2023-08-06T07:46:44;0.68;;;0.22;;
45540;SDS011;31265;49.680;8.608;2023-08-06T07:49:12;1.58;;;0.30;;
45540;SDS011;31265;49.680;8.608;2023-08-06T07:51:40;1.25;;;0.63;;
45540;SDS011;31265;49.680;8.608;2023-08-06T07:54:09;1.25;;;0.30;;
45540;SDS011;31265;49.680;8.608;2023-08-06T07:56:37;0.40;;;0.10;;
45540;SDS011;31265;49.680;8.608;2023-08-06T07:59:05;1.40;;;0.55;;
45540;SDS011;31265;49.680;8.608;2023-08-06T08:01:34;0.25;;;0.03;;
45540;SDS011;31265;49.680;8.608;2023-08-06T08:04:03;1.63;;;0.28;;
45540;SDS011;31265;49.680;8.608;2023-08-06T08:09:01;1.08;;;0.20;;
45540;SDS011;31265;49.680;8.608;2023-08-06T08:11:29;0.82;;;0.20;;
45540;SDS011;31265;49.680;8.608;2023-08-06T08:13:58;0.32;;;0.20;;
45540;SDS011;31265;49.680;8.608;2023-08-06T08:16:26;0.38;;;0.15;;
45540;SDS011;31265;49.680;8.608;2023-08-06T08:18:55;0.80;;;0.22;;
45540;SDS011;31265;49.680;8.608;2023-08-06T08:21:25;1.58;;;0.20;;
45540;SDS011;31265;49.680;8.608;2023-08-06T08:23:54;0.73;;;0.20;;
45540;SDS011;31265;49.680;8.608;2023-08-06T08:26:22;0.28;;;0.10;;
45540;SDS011;31265;49.680;8.608;2023-08-06T08:28:51;1.45;;;0.10;;
45540;SDS011;31265;49.680;8.608;2023-08-06T08:31:19;0.22;;;0.10;;
45540;SDS011;31265;49.680;8.608;2023-08-06T08:33:48;3.95;;;0.10;;
45540;SDS011;31265;49.680;8.608;2023-08-06T08:36:20;0.10;;;0.00;;
45540;SDS011;31265;49.680;8.608;2023-08-06T08:38:50;0.17;;;0.00;;
45540;SDS011;31265;49.680;8.608;2023-08-06T08:41:20;1.08;;;0.10;;
45540;SDS011;31265;49.680;8.608;2023-08-06T08:43:49;0.93;;;0.30;;
45540;SDS011;31265;49.680;8.608;2023-08-06T08:46:19;1.45;;;0.20;;
45540;SDS011;31265;49.680;8.608;2023-08-06T08:48:47;0.00;;;0.00;;
45540;SDS011;31265;49.680;8.608;2023-08-06T08:51:16;0.90;;;0.10;;
45540;SDS011;31265;49.680;8.608;2023-08-06T08:53:50;0.30;;;0.00;;
45540;SDS011;31265;49.680;8.608;2023-08-06T08:56:23;2.65;;;0.00;;
45540;SDS011;31265;49.680;8.608;2023-08-06T08:58:52;0.30;;;0.10;;
45540;SDS011;31265;49.680;8.608;2023-08-06T09:01:22;0.32;;;0.15;;
45540;SDS011;31265;49.680;8.608;2023-08-06T09:03:51;0.13;;;0.10;;
45540;SDS011;31265;49.680;8.608;2023-08-06T09:06:20;2.50;;;0.10;;
45540;SDS011;31265;49.680;8.608;2023-08-06T09:08:57;0.47;;;0.10;;
45540;SDS011;31265;49.680;8.608;2023-08-06T09:11:30;0.50;;;0.20;;
45540;SDS011;31265;49.680;8.608;2023-08-06T09:14:09;0.38;;;0.00;;
45540;SDS011;31265;49.680;8.608;2023-08-06T09:19:07;0.17;;;0.10;;
45540;SDS011;31265;49.680;8.608;2023-08-06T09:21:37;1.30;;;0.22;;
45540;SDS011;31265;49.680;8.608;2023-08-06T09:24:08;0.30;;;0.20;;
45540;SDS011;31265;49.680;8.608;2023-08-06T09:26:38;0.45;;;0.10;;
45540;SDS011;31265;49.680;8.608;2023-08-06T09:29:07;0.20;;;0.10;;
45540;SDS011;31265;49.680;8.608;2023-08-06T09:31:40;0.17;;;0.00;;
45540;SDS011;31265;49.680;8.608;2023-08-06T09:34:15;0.77;;;0.25;;
45540;SDS011;31265;49.680;8.608;2023-08-06T09:36:46;0.93;;;0.03;;
45540;SDS011;31265;49.680;8.608;2023-08-06T09:39:17;0.38;;;0.20;;
45540;SDS011;31265;49.680;8.608;2023-08-06T09:41:47;0.10;;;0.00;;
45540;SDS011;31265;49.680;8.608;2023-08-06T09:44:16;0.28;;;0.08;;
45540;SDS011;31265;49.680;8.608;2023-08-06T09:46:47;0.40;;;0.00;;
45540;SDS011;31265;49.680;8.608;2023-08-06T09:49:17;0.28;;;0.10;;
45540;SDS011;31265;49.680;8.608;2023-08-06T09:51:50;0.30;;;0.10;;
45540;SDS011;31265;49.680;8.608;2023-08-06T09:54:24;0.15;;;0.00;;
45540;SDS011;31265;49.680;8.608;2023-08-06T09:56:54;0.13;;;0.00;;
45540;SDS011;31265;49.680;8.608;2023-08-06T09:59:23;0.00;;;0.00;;
45540;SDS011;31265;49.680;8.608;2023-08-06T10:01:52;0.13;;;0.00;;
45540;SDS011;31265;49.680;8.608;2023-08-06T10:04:23;0.50;;;0.08;;
45540;SDS011;31265;49.680;8.608;2023-08-06T10:07:01;0.15;;;0.00;;
45540;SDS011;31265;49.680;8.608;2023-08-06T10:09:32;1.08;;;0.10;;
45540;SDS011;31265;49.680;8.608;2023-08-06T10:12:01;0.20;;;0.10;;
45540;SDS011;31265;49.680;8.608;2023-08-06T10:14:30;0.17;;;0.00;;
45540;SDS011;31265;49.680;8.608;2023-08-06T10:17:01;0.00;;;0.00;;
45540;SDS011;31265;49.680;8.608;2023-08-06T10:19:31;0.05;;;0.00;;
45540;SDS011;31265;49.680;8.608;2023-08-06T10:22:10;0.10;;;0.00;;
45540;SDS011;31265;49.680;8.608;2023-08-06T10:24:48;0.75;;;0.20;;
45540;SDS011;31265;49.680;8.608;2023-08-06T10:27:21;0.00;;;0.00;;
45540;SDS011;31265;49.680;8.608;2023-08-06T10:29:52;0.10;;;0.00;;
45540;SDS011;31265;49.680;8.608;2023-08-06T10:35:27;0.00;;;0.00;;
45540;SDS011;31265;49.680;8.608;2023-08-06T10:37:58;0.05;;;0.00;;
45540;SDS011;31265;49.680;8.608;2023-08-06T10:40:29;0.03;;;0.00;;
45540;SDS011;31265;49.680;8.608;2023-08-06T10:42:58;0.57;;;0.20;;
45540;SDS011;31265;49.680;8.608;2023-08-06T10:45:27;0.95;;;0.20;;
45540;SDS011;31265;49.680;8.608;2023-08-06T10:50:26;1.67;;;0.15;;
45540;SDS011;31265;49.680;8.608;2023-08-06T10:52:54;0.80;;;0.28;;
45540;SDS011;31265;49.680;8.608;2023-08-06T10:55:25;1.58;;;0.68;;
45540;SDS011;31265;49.680;8.608;2023-08-06T10:57:56;0.40;;;0.10;;
45540;SDS011;31265;49.680;8.608;2023-08-06T11:00:25;0.35;;;0.10;;
45540;SDS011;31265;49.680;8.608;2023-08-06T11:02:55;0.10;;;0.00;;
45540;SDS011;31265;49.680;8.608;2023-08-06T11:05:23;0.20;;;0.05;;
45540;SDS011;31265;49.680;8.608;2023-08-06T11:07:52;0.00;;;0.00;;
45540;SDS011;31265;49.680;8.608;2023-08-06T11:10:20;0.98;;;0.10;;
45540;SDS011;31265;49.680;8.608;2023-08-06T11:12:48;0.17;;;0.00;;
45540;SDS011;31265;49.680;8.608;2023-08-06T11:15:19;0.63;;;0.55;;
45540;SDS011;31265;49.680;8.608;2023-08-06T11:17:48;0.10;;;0.00;;
45540;SDS011;31265;49.680;8.608;2023-08-06T11:20:17;0.20;;;0.00;;
45540;SDS011;31265;49.680;8.608;2023-08-06T11:22:49;0.00;;;0.00;;
45540;SDS011;31265;49.680;8.608;2023-08-06T11:25:20;1.08;;;0.15;;
45540;SDS011;31265;49.680;8.608;2023-08-06T11:27:48;0.00;;;0.00;;
45540;SDS011;31265;49.680;8.608;2023-08-06T11:30:19;0.20;;;0.00;;
45540;SDS011;31265;49.680;8.608;2023-08-06T11:32:48;0.38;;;0.10;;
45540;SDS011;31265;49.680;8.608;2023-08-06T11:35:16;0.68;;;0.10;;
45540;SDS011;31265;49.680;8.608;2023-08-06T11:37:45;0.00;;;0.00;;
45540;SDS011;31265;49.680;8.608;2023-08-06T11:42:43;0.35;;;0.10;;
45540;SDS011;31265;49.680;8.608;2023-08-06T11:45:14;0.75;;;0.10;;
45540;SDS011;31265;49.680;8.608;2023-08-06T11:47:49;0.10;;;0.00;;
45540;SDS011;31265;49.680;8.608;2023-08-06T11:50:26;0.20;;;0.10;;
45540;SDS011;31265;49.680;8.608;2023-08-06T11:52:56;0.47;;;0.03;;
45540;SDS011;31265;49.680;8.608;2023-08-06T11:55:26;0.10;;;0.00;;
45540;SDS011;31265;49.680;8.608;2023-08-06T11:57:56;0.05;;;0.00;;
45540;SDS011;31265;49.680;8.608;2023-08-06T12:00:27;1.98;;;0.20;;
45540;SDS011;31265;49.680;8.608;2023-08-06T12:02:58;0.17;;;0.00;;
45540;SDS011;31265;49.680;8.608;2023-08-06T12:05:31;0.70;;;0.10;;
45540;SDS011;31265;49.680;8.608;2023-08-06T12:08:01;0.10;;;0.10;;
45540;SDS011;31265;49.680;8.608;2023-08-06T12:10:30;0.17;;;0.05;;
45540;SDS011;31265;49.680;8.608;2023-08-06T12:13:00;0.22;;;0.03;;
45540;SDS011;31265;49.680;8.608;2023-08-06T12:15:29;0.30;;;0.20;;
45540;SDS011;31265;49.680;8.608;2023-08-06T12:18:01;1.35;;;0.85;;
45540;SDS011;31265;49.680;8.608;2023-08-06T12:20:29;1.10;;;0.28;;
45540;SDS011;31265;49.680;8.608;2023-08-06T12:22:58;0.38;;;0.10;;
45540;SDS011;31265;49.680;8.608;2023-08-06T12:25:27;0.25;;;0.10;;
45540;SDS011;31265;49.680;8.608;2023-08-06T12:27:55;0.05;;;0.00;;
45540;SDS011;31265;49.680;8.608;2023-08-06T12:30:24;0.60;;;0.20;;
45540;SDS011;31265;49.680;8.608;2023-08-06T12:32:52;0.30;;;0.10;;
45540;SDS011;31265;49.680;8.608;2023-08-06T12:35:23;0.10;;;0.05;;
45540;SDS011;31265;49.680;8.608;2023-08-06T12:37:52;0.88;;;0.10;;
45540;SDS011;31265;49.680;8.608;2023-08-06T12:40:21;0.90;;;0.20;;
45540;SDS011;31265;49.680;8.608;2023-08-06T12:43:03;0.47;;;0.20;;
45540;SDS011;31265;49.680;8.608;2023-08-06T12:45:32;0.25;;;0.10;;
45540;SDS011;31265;49.680;8.608;2023-08-06T12:48:00;0.20;;;0.10;;
45540;SDS011;31265;49.680;8.608;2023-08-06T12:50:30;0.77;;;0.10;;
45540;SDS011;31265;49.680;8.608;2023-08-06T12:53:00;0.82;;;0.32;;
45540;SDS011;31265;49.680;8.608;2023-08-06T12:55:32;0.82;;;0.20;;
45540;SDS011;31265;49.680;8.608;2023-08-06T12:58:02;0.47;;;0.20;;
45540;SDS011;31265;49.680;8.608;2023-08-06T13:00:30;1.98;;;0.10;;
45540;SDS011;31265;49.680;8.608;2023-08-06T13:02:59;0.20;;;0.00;;
45540;SDS011;31265;49.680;8.608;2023-08-06T13:05:27;0.50;;;0.10;;
45540;SDS011;31265;49.680;8.608;2023-08-06T13:07:57;0.98;;;0.43;;
45540;SDS011;31265;49.680;8.608;2023-08-06T13:10:27;0.60;;;0.20;;
45540;SDS011;31265;49.680;8.608;2023-08-06T13:12:56;0.30;;;0.10;;
45540;SDS011;31265;49.680;8.608;2023-08-06T13:15:24;0.00;;;0.00;;
45540;SDS011;31265;49.680;8.608;2023-08-06T13:17:52;0.50;;;0.05;;
45540;SDS011;31265;49.680;8.608;2023-08-06T13:20:21;0.30;;;0.10;;
45540;SDS011;31265;49.680;8.608;2023-08-06T13:22:50;0.70;;;0.17;;
45540;SDS011;31265;49.680;8.608;2023-08-06T13:25:21;0.20;;;0.00;;
45540;SDS011;31265;49.680;8.608;2023-08-06T13:27:50;0.25;;;0.10;;
45540;SDS011;31265;49.680;8.608;2023-08-06T13:30:18;0.98;;;0.20;;
45540;SDS011;31265;49.680;8.608;2023-08-06T13:32:47;0.00;;;0.00;;
45540;SDS011;31265;49.680;8.608;2023-08-06T13:35:15;0.10;;;0.00;;
45540;SDS011;31265;49.680;8.608;2023-08-06T13:37:44;0.15;;;0.00;;
45540;SDS011;31265;49.680;8.608;2023-08-06T13:40:15;2.63;;;0.52;;
45540;SDS011;31265;49.680;8.608;2023-08-06T13:42:46;0.73;;;0.20;;
45540;SDS011;31265;49.680;8.608;2023-08-06T13:45:15;2.42;;;0.20;;
45540;SDS011;31265;49.680;8.608;2023-08-06T13:47:44;0.50;;;0.03;;
45540;SDS011;31265;49.680;8.608;2023-08-06T13:50:12;0.90;;;0.22;;
45540;SDS011;31265;49.680;8.608;2023-08-06T13:52:41;0.65;;;0.17;;
45540;SDS011;31265;49.680;8.608;2023-08-06T13:55:09;0.32;;;0.00;;
45540;SDS011;31265;49.680;8.608;2023-08-06T13:57:38;1.02;;;0.22;;
45540;SDS011;31265;49.680;8.608;2023-08-06T14:00:08;0.77;;;0.20;;
45540;SDS011;31265;49.680;8.608;2023-08-06T14:02:42;0.15;;;0.10;;
45540;SDS011;31265;49.680;8.608;2023-08-06T14:05:12;0.03;;;0.00;;
45540;SDS011;31265;49.680;8.608;2023-08-06T14:07:42;3.05;;;0.25;;
45540;SDS011;31265;49.680;8.608;2023-08-06T14:10:12;0.28;;;0.08;;
45540;SDS011;31265;49.680;8.608;2023-08-06T14:12:41;0.28;;;0.03;;
45540;SDS011;31265;49.680;8.608;2023-08-06T14:15:18;0.57;;;0.10;;
45540;SDS011;31265;49.680;8.608;2023-08-06T14:17:46;0.80;;;0.20;;
45540;SDS011;31265;49.680;8.608;2023-08-06T14:20:16;1.02;;;0.32;;
45540;SDS011;31265;49.680;8.608;2023-08-06T14:22:44;0.20;;;0.10;;
45540;SDS011;31265;49.680;8.608;2023-08-06T14:25:14;0.10;;;0.10;;
45540;SDS011;31265;49.680;8.608;2023-08-06T14:27:42;0.52;;;0.10;;
45540;SDS011;31265;49.680;8.608;2023-08-06T14:30:11;0.13;;;0.00;;
45540;SDS011;31265;49.680;8.608;2023-08-06T14:32:41;0.30;;;0.10;;
45540;SDS011;31265;49.680;8.608;2023-08-06T14:37:37;1.20;;;0.13;;
45540;SDS011;31265;49.680;8.608;2023-08-06T14:40:06;0.15;;;0.05;;
45540;SDS011;31265;49.680;8.608;2023-08-06T14:42:36;0.10;;;0.00;;
45540;SDS011;31265;49.680;8.608;2023-08-06T14:45:06;0.50;;;0.10;;
45540;SDS011;31265;49.680;8.608;2023-08-06T14:47:35;0.30;;;0.30;;
45540;SDS011;31265;49.680;8.608;2023-08-06T14:50:05;0.08;;;0.00;;
45540;SDS011;31265;49.680;8.608;2023-08-06T14:52:34;0.20;;;0.00;;
45540;SDS011;31265;49.680;8.608;2023-08-06T14:55:03;0.47;;;0.20;;
45540;SDS011;31265;49.680;8.608;2023-08-06T14:57:32;0.20;;;0.10;;
45540;SDS011;31265;49.680;8.608;2023-08-06T15:00:00;0.35;;;0.10;;
45540;SDS011;31265;49.680;8.608;2023-08-06T15:02:29;0.55;;;0.10;;
45540;SDS011;31265;49.680;8.608;2023-08-06T15:04:58;0.95;;;0.20;;
45540;SDS011;31265;49.680;8.608;2023-08-06T15:07:27;0.00;;;0.00;;
45540;SDS011;31265;49.680;8.608;2023-08-06T15:09:57;0.77;;;0.20;;
45540;SDS011;31265;49.680;8.608;2023-08-06T15:12:48;2.72;;;0.00;;
45540;SDS011;31265;49.680;8.608;2023-08-06T15:15:17;0.43;;;0.20;;
45540;SDS011;31265;49.680;8.608;2023-08-06T15:17:45;0.32;;;0.10;;
45540;SDS011;31265;49.680;8.608;2023-08-06T15:20:13;0.28;;;0.20;;
45540;SDS011;31265;49.680;8.608;2023-08-06T15:22:43;0.30;;;0.10;;
45540;SDS011;31265;49.680;8.608;2023-08-06T15:27:40;0.00;;;0.00;;
45540;SDS011;31265;49.680;8.608;2023-08-06T15:30:09;0.10;;;0.10;;
45540;SDS011;31265;49.680;8.608;2023-08-06T15:32:38;0.20;;;0.10;;
45540;SDS011;31265;49.680;8.608;2023-08-06T15:35:11;0.65;;;0.40;;
45540;SDS011;31265;49.680;8.608;2023-08-06T15:37:39;0.10;;;0.00;;
45540;SDS011;31265;49.680;8.608;2023-08-06T15:40:10;0.20;;;0.10;;